Time;durP1;ratioP1;P1;durP2;ratioP2;P2;SDS_P1;SDS_P2;PMS_P1;PMS_P2;Temp;Humidity;BMP_temperature;BMP_pressure;BME280_temperature;BME280_humidity;BME280_pressure;Samples;Min_cycle;Max_cycle;Signal;HPM_P1;HPM_P2
2021/07/19 00:02:13;;;;;;;4.13;2.40;;;;;;;26.46;67.03;98271.72;5047200;28;20587;-74
2021/07/19 00:04:43;;;;;;;2.83;2.20;;;;;;;26.11;69.18;98266.78;5029876;28;20226;-74
2021/07/19 00:07:10;;;;;;;3.30;2.23;;;;;;;26.16;68.33;98276.84;5047155;28;20213;-74
2021/07/19 00:09:44;;;;;;;3.43;2.30;;;;;;;26.05;69.48;98275.34;5037815;28;20205;-74
2021/07/19 00:12:13;;;;;;;3.83;2.80;;;;;;;25.93;69.65;98274.94;5040587;28;20711;-74
2021/07/19 00:14:40;;;;;;;4.13;2.40;;;;;;;25.93;69.96;98274.94;5037541;28;20272;-74
2021/07/19 00:17:08;;;;;;;4.60;3.00;;;;;;;25.86;70.01;98272.56;5032948;28;20207;-75
2021/07/19 00:19:35;;;;;;;6.37;2.93;;;;;;;26.24;67.74;98273.47;5052251;28;20276;-74
2021/07/19 00:22:03;;;;;;;2.47;2.23;;;;;;;26.20;67.75;98272.41;5052638;28;20222;-74
2021/07/19 00:24:30;;;;;;;5.20;3.10;;;;;;;25.85;69.36;98273.63;5047036;28;20720;-74
2021/07/19 00:26:59;;;;;;;2.57;2.27;;;;;;;25.81;70.58;98269.88;5045493;28;20205;-72
2021/07/19 00:29:27;;;;;;;5.33;2.53;;;;;;;25.78;70.67;98277.81;5042509;28;20209;-72
2021/07/19 00:31:54;;;;;;;3.00;2.33;;;;;;;25.90;69.96;98270.84;5031864;28;20217;-72
2021/07/19 00:34:21;;;;;;;3.33;2.40;;;;;;;25.81;69.81;98269.88;5040727;28;20209;-75
2021/07/19 00:36:50;;;;;;;6.17;2.37;;;;;;;25.56;71.57;98270.19;5047887;28;20195;-74
2021/07/19 00:39:17;;;;;;;2.33;2.03;;;;;;;25.49;72.17;98275.16;5048355;28;20622;-74
2021/07/19 00:41:45;;;;;;;3.03;2.40;;;;;;;25.78;70.75;98272.34;5052604;28;20222;-74
2021/07/19 00:44:17;;;;;;;3.93;2.80;;;;;;;25.74;70.67;98276.81;5042326;28;20230;-74
2021/07/19 00:46:44;;;;;;;3.07;2.30;;;;;;;25.76;70.24;98272.69;5024672;28;20233;-74
2021/07/19 00:49:12;;;;;;;5.10;2.70;;;;;;;25.72;70.36;98265.31;5042124;28;20220;-74
2021/07/19 00:51:41;;;;;;;2.67;2.27;;;;;;;25.65;71.04;98262.94;5039184;28;20229;-74
2021/07/19 00:54:10;;;;;;;6.93;2.70;;;;;;;25.62;71.02;98260.81;5035334;28;20209;-74
2021/07/19 00:56:39;;;;;;;3.97;2.40;;;;;;;25.64;71.23;98263.25;5046964;28;20198;-74
2021/07/19 00:59:08;;;;;;;3.37;2.30;;;;;;;25.59;71.26;98263.31;5039948;28;20205;-75
2021/07/19 01:01:39;;;;;;;5.00;2.30;;;;;;;25.56;70.96;98267.44;5034514;28;20723;-74
2021/07/19 01:04:07;;;;;;;6.03;2.57;;;;;;;25.59;70.75;98263.31;5036562;28;20213;-74
2021/07/19 01:06:35;;;;;;;6.00;2.60;;;;;;;25.53;70.82;98265.28;5037398;28;20719;-74
2021/07/19 01:09:05;;;;;;;3.87;2.47;;;;;;;25.49;70.86;98264.22;5032032;28;20230;-75
2021/07/19 01:11:33;;;;;;;3.40;2.70;;;;;;;25.56;70.74;98269.34;5036893;28;20276;-74
2021/07/19 01:14:00;;;;;;;2.63;2.30;;;;;;;25.67;69.86;98266.22;5049121;28;20217;-75
2021/07/19 01:16:28;;;;;;;3.43;2.30;;;;;;;25.71;70.08;98269.19;5050237;28;20568;-74
2021/07/19 01:18:56;;;;;;;5.00;2.50;;;;;;;25.66;69.91;98261.03;5040766;28;20205;-74
2021/07/19 01:21:58;;;;;;;3.67;2.33;;;;;;;25.49;70.43;98266.97;5034701;28;20225;-74
2021/07/19 01:24:33;;;;;;;3.00;2.30;;;;;;;25.73;69.15;98261.47;5029108;28;20235;-74
2021/07/19 01:27:12;;;;;;;4.60;2.30;;;;;;;25.33;70.89;98257.28;5039340;28;20213;-74
2021/07/19 01:29:42;;;;;;;4.70;2.73;;;;;;;25.72;69.86;98265.31;5035360;28;20204;-74
2021/07/19 01:32:10;;;;;;;5.80;2.90;;;;;;;25.60;70.65;98262.19;5035211;28;20308;-74
2021/07/19 01:34:40;;;;;;;4.50;2.67;;;;;;;25.67;69.81;98262.66;5030150;28;20209;-76
2021/07/19 01:37:09;;;;;;;4.33;2.57;;;;;;;25.51;71.06;98259.31;5034298;28;20639;-74
2021/07/19 01:39:37;;;;;;;3.80;2.60;;;;;;;25.26;71.75;98262.28;5035466;28;20214;-74
2021/07/19 01:42:05;;;;;;;6.90;2.37;;;;;;;25.30;71.23;98259.78;5038665;28;20226;-75
2021/07/19 01:44:33;;;;;;;3.73;2.73;;;;;;;25.04;72.36;98258.38;5034850;28;21456;-75
2021/07/19 01:47:06;;;;;;;5.33;2.50;;;;;;;25.29;71.87;98249.97;5042428;28;20209;-74
2021/07/19 01:49:35;;;;;;;3.57;2.40;;;;;;;25.33;72.69;98257.28;5033252;28;20735;-74
2021/07/19 01:52:03;;;;;;;5.90;2.40;;;;;;;25.19;72.59;98256.31;5036107;28;20651;-74
2021/07/19 01:54:31;;;;;;;3.10;2.47;;;;;;;25.03;74.55;98252.09;5042719;28;20210;-74
2021/07/19 01:56:58;;;;;;;4.53;2.50;;;;;;;25.17;72.53;98254.97;5036018;28;20208;-74
2021/07/19 01:59:27;;;;;;;4.00;2.80;;;;;;;25.43;71.57;98259.91;5042935;28;20208;-74
2021/07/19 02:01:54;;;;;;;2.97;2.57;;;;;;;25.38;71.55;98257.25;5034614;28;20240;-74
2021/07/19 02:04:23;;;;;;;5.03;2.30;;;;;;;25.25;72.15;98260.69;5035129;28;20209;-74
2021/07/19 02:06:51;;;;;;;5.10;2.87;;;;;;;25.27;72.39;98258.47;5041217;28;20315;-74
2021/07/19 02:09:19;;;;;;;4.00;2.90;;;;;;;25.29;72.09;98260.91;5040677;28;20211;-74
2021/07/19 02:11:47;;;;;;;2.90;2.50;;;;;;;25.12;72.80;98255.00;5034577;28;20235;-74
2021/07/19 02:14:15;;;;;;;5.60;2.83;;;;;;;24.93;74.24;98256.84;5029320;28;20206;-74
2021/07/19 02:16:46;;;;;;;4.60;2.60;;;;;;;25.01;74.12;98262.50;5050537;28;20201;-74
2021/07/19 02:19:14;;;;;;;3.73;2.70;;;;;;;25.09;73.29;98261.88;5046809;28;20213;-75
2021/07/19 02:21:43;;;;;;;4.03;2.87;;;;;;;25.12;73.15;98265.94;5040791;28;20224;-74
2021/07/19 02:24:11;;;;;;;3.10;2.80;;;;;;;25.18;73.09;98268.34;5047280;28;20214;-74
2021/07/19 02:26:39;;;;;;;5.20;3.20;;;;;;;25.17;72.98;98264.00;5030244;28;20591;-74
2021/07/19 02:29:06;;;;;;;5.67;2.80;;;;;;;25.18;72.86;98271.06;5025877;28;20207;-75
2021/07/19 02:31:34;;;;;;;4.83;2.90;;;;;;;25.10;73.49;98268.16;5032246;28;20601;-74
2021/07/19 02:34:01;;;;;;;5.27;3.00;;;;;;;24.64;75.44;98256.00;5034658;28;20559;-74
2021/07/19 02:36:29;;;;;;;2.93;2.47;;;;;;;24.81;75.13;98259.13;5038010;28;20205;-75
2021/07/19 02:38:58;;;;;;;4.80;2.80;;;;;;;24.96;74.34;98264.47;5046047;28;20212;-74
2021/07/19 02:41:27;;;;;;;4.37;3.00;;;;;;;24.90;73.69;98262.88;5044485;28;20575;-74
2021/07/19 02:43:56;;;;;;;3.43;3.00;;;;;;;25.05;73.60;98260.84;5036917;28;20576;-74
2021/07/19 02:46:25;;;;;;;5.23;3.17;;;;;;;25.04;73.99;98261.13;5033965;28;20228;-74
2021/07/19 02:48:54;;;;;;;6.10;3.10;;;;;;;25.05;74.00;98260.00;5031142;28;20204;-74
2021/07/19 02:51:22;;;;;;;4.50;3.17;;;;;;;24.96;74.46;98259.81;5035259;28;20283;-74
2021/07/19 02:53:52;;;;;;;3.50;2.70;;;;;;;24.86;75.35;98259.91;5038489;28;20217;-75
2021/07/19 02:56:21;;;;;;;5.73;3.10;;;;;;;25.00;73.58;98260.06;5041902;28;20201;-75
2021/07/19 02:58:48;;;;;;;4.03;2.73;;;;;;;24.65;75.75;98257.63;5046149;28;20196;-74
2021/07/19 03:01:20;;;;;;;3.67;3.00;;;;;;;24.90;74.27;98268.34;5038617;28;20243;-74
2021/07/19 03:03:47;;;;;;;3.70;2.80;;;;;;;24.76;75.75;98270.09;5026199;28;20219;-74
2021/07/19 03:06:19;;;;;;;4.23;2.70;;;;;;;24.96;74.08;98267.19;5039502;28;20224;-74
2021/07/19 03:08:47;;;;;;;5.03;3.97;;;;;;;24.91;74.11;98269.97;5043327;28;20211;-74
2021/07/19 03:11:22;;;;;;;5.30;4.03;;;;;;;24.79;74.86;98259.44;5041429;28;20223;-74
2021/07/19 03:13:53;;;;;;;7.57;3.70;;;;;;;24.96;74.38;98261.72;5032478;28;20194;-75
2021/07/19 03:16:23;;;;;;;5.10;3.20;;;;;;;24.87;74.76;98252.53;5034603;28;20212;-74
2021/07/19 03:18:50;;;;;;;5.07;3.03;;;;;;;24.83;74.84;98249.53;5032837;28;20205;-74
2021/07/19 03:21:18;;;;;;;6.93;3.63;;;;;;;24.85;75.21;98252.00;5041571;28;20220;-74
2021/07/19 03:23:46;;;;;;;5.67;3.40;;;;;;;24.77;76.00;98252.63;5045674;28;20207;-74
2021/07/19 03:26:14;;;;;;;5.23;3.17;;;;;;;24.72;76.68;98247.22;5038577;28;20222;-75
2021/07/19 03:28:43;;;;;;;7.20;3.20;;;;;;;24.47;77.71;98248.16;5030685;28;20592;-74
2021/07/19 03:31:11;;;;;;;5.37;2.90;;;;;;;24.66;77.11;98238.22;5040475;28;20239;-74
2021/07/19 03:33:42;;;;;;;4.07;2.93;;;;;;;24.64;76.70;98253.28;5041562;28;20214;-74
2021/07/19 03:36:10;;;;;;;5.83;3.67;;;;;;;24.63;76.47;98243.47;5043168;28;20239;-74
2021/07/19 03:38:38;;;;;;;7.70;3.20;;;;;;;24.45;77.92;98255.00;5033397;28;20199;-74
2021/07/19 03:41:06;;;;;;;4.47;3.17;;;;;;;24.50;77.15;98249.50;5036563;28;20931;-74
2021/07/19 03:43:34;;;;;;;4.80;3.37;;;;;;;24.58;77.00;98254.38;5044243;28;20220;-74
2021/07/19 03:46:03;;;;;;;7.30;3.27;;;;;;;24.57;77.13;98263.66;5047540;28;20227;-75
2021/07/19 03:48:30;;;;;;;5.67;3.53;;;;;;;24.51;78.48;98260.16;5037089;28;20203;-74
2021/07/19 03:50:58;;;;;;;5.00;3.77;;;;;;;24.40;78.42;98258.59;5031884;28;20227;-74
2021/07/19 03:53:26;;;;;;;5.43;3.03;;;;;;;24.32;79.99;98256.44;5029099;28;20216;-74
2021/07/19 03:55:53;;;;;;;5.83;3.57;;;;;;;24.41;79.24;98260.22;5038386;28;20196;-74
2021/07/19 03:58:21;;;;;;;9.07;3.30;;;;;;;24.41;78.19;98249.31;5030340;28;20209;-74
2021/07/19 04:00:48;;;;;;;4.63;3.07;;;;;;;24.41;78.42;98253.94;5042004;28;20553;-74
2021/07/19 04:03:19;;;;;;;4.27;3.00;;;;;;;;;;5038730;28;20202;-75
2021/07/19 04:05:50;;;;;;;5.43;3.37;;;;;;;24.58;77.78;98254.38;5029341;28;20241;-74
2021/07/19 04:08:18;;;;;;;7.47;3.60;;;;;;;24.58;77.87;98255.22;5034731;28;20275;-74
2021/07/19 04:10:46;;;;;;;6.03;3.60;;;;;;;24.55;78.00;98255.75;5046173;28;20590;-74
2021/07/19 04:13:13;;;;;;;7.50;3.57;;;;;;;24.49;78.09;98261.53;5043482;28;20220;-78
2021/07/19 04:15:46;;;;;;;4.40;3.10;;;;;;;24.64;77.65;98256.81;5046181;28;20207;-75
2021/07/19 04:18:13;;;;;;;7.20;2.93;;;;;;;24.57;77.40;98264.47;5040728;28;20570;-74
2021/07/19 04:20:43;;;;;;;5.67;3.27;;;;;;;24.71;77.44;98268.22;5032172;28;20235;-75
2021/07/19 04:23:10;;;;;;;5.53;3.40;;;;;;;24.86;76.87;98264.53;5036890;28;20217;-75
2021/07/19 04:25:38;;;;;;;5.77;3.33;;;;;;;24.92;76.13;98274.31;5041757;28;20603;-76
2021/07/19 04:28:06;;;;;;;5.03;3.50;;;;;;;24.85;76.24;98271.94;5048193;28;21109;-75
2021/07/19 04:30:35;;;;;;;5.03;3.13;;;;;;;25.06;76.28;98269.81;5051700;28;20207;-76
2021/07/19 04:33:03;;;;;;;6.30;3.30;;;;;;;25.16;75.77;98269.72;5045831;28;20465;-75
2021/07/19 04:35:30;;;;;;;6.23;3.53;;;;;;;25.28;75.50;98267.47;5032440;28;20814;-77
2021/07/19 04:37:59;;;;;;;8.00;3.33;;;;;;;25.19;75.19;98269.16;5035555;28;20199;-74
2021/07/19 04:40:27;;;;;;;5.67;3.30;;;;;;;25.34;74.44;98263.59;5043050;28;20215;-75
2021/07/19 04:42:56;;;;;;;5.07;3.23;;;;;;;25.42;73.86;98268.41;5047122;28;20211;-76
2021/07/19 04:45:23;;;;;;;7.67;3.30;;;;;;;25.28;73.34;98270.22;5041996;28;20263;-76
2021/07/19 04:47:50;;;;;;;4.13;2.90;;;;;;;25.59;72.69;98266.84;5049971;28;20680;-75
2021/07/19 04:50:18;;;;;;;4.93;3.03;;;;;;;25.74;71.88;98266.66;5047912;28;20216;-76
2021/07/19 04:52:46;;;;;;;5.10;3.27;;;;;;;25.73;71.24;98277.88;5042313;28;20210;-75
2021/07/19 04:55:19;;;;;;;4.67;3.87;;;;;;;25.88;70.49;98274.97;5049894;28;20212;-75
2021/07/19 04:57:50;;;;;;;4.60;2.60;;;;;;;25.87;69.25;98281.56;5042141;28;20202;-75
2021/07/19 05:00:18;;;;;;;6.37;3.23;;;;;;;26.24;67.76;98281.66;5046726;28;20221;-75
2021/07/19 05:02:46;;;;;;;3.83;2.87;;;;;;;26.64;66.65;98276.44;5036673;28;20223;-75
2021/07/19 05:05:17;;;;;;;5.30;2.67;;;;;;;26.89;65.38;98283.41;5028143;28;20215;-75
2021/07/19 05:07:45;;;;;;;4.27;2.73;;;;;;;27.17;64.57;98285.16;5039595;28;20227;-75
2021/07/19 05:10:16;;;;;;;4.10;2.77;;;;;;;27.41;62.25;98291.34;5045026;28;20220;-74
2021/07/19 05:12:45;;;;;;;5.17;2.70;;;;;;;27.58;60.53;98297.03;5041740;28;20226;-75
2021/07/19 05:15:13;;;;;;;4.33;3.17;;;;;;;27.19;61.94;98291.16;5047934;28;20221;-75
2021/07/19 05:17:41;;;;;;;4.03;2.70;;;;;;;26.84;63.64;98288.97;5037514;28;20297;-75
2021/07/19 05:20:12;;;;;;;3.90;2.60;;;;;;;26.59;64.82;98281.16;5035311;28;20564;-72
2021/07/19 05:22:39;;;;;;;3.73;2.60;;;;;;;26.56;64.96;98284.50;5040461;28;20604;-74
2021/07/19 05:25:08;;;;;;;5.23;2.63;;;;;;;26.13;65.71;98283.72;5046699;28;20206;-75
2021/07/19 05:27:38;;;;;;;3.60;2.93;;;;;;;26.41;65.21;98290.16;5042254;28;20233;-74
2021/07/19 05:30:06;;;;;;;3.27;2.60;;;;;;;26.01;68.39;98277.03;5051357;28;20206;-74
2021/07/19 05:32:34;;;;;;;4.07;3.03;;;;;;;25.94;68.27;98273.84;5036533;28;20718;-74
2021/07/19 05:35:01;;;;;;;4.07;3.00;;;;;;;26.91;63.70;98286.69;5030858;28;20208;-74
2021/07/19 05:37:28;;;;;;;3.90;2.90;;;;;;;27.68;60.01;98297.66;5038954;28;20221;-74
2021/07/19 05:39:55;;;;;;;5.57;2.60;;;;;;;26.57;63.78;98283.38;5045650;28;20596;-74
2021/07/19 05:42:23;;;;;;;5.13;2.87;;;;;;;26.95;62.33;98288.53;5047713;28;20721;-74
2021/07/19 05:44:51;;;;;;;4.87;2.53;;;;;;;27.73;58.28;98292.06;5045097;28;20306;-74
2021/07/19 05:47:18;;;;;;;4.23;2.50;;;;;;;26.13;65.71;98277.41;5046398;28;20580;-74
2021/07/19 05:49:46;;;;;;;4.27;2.70;;;;;;;25.99;68.01;98271.06;5030854;28;20202;-74
2021/07/19 05:52:13;;;;;;;4.73;2.90;;;;;;;25.76;67.93;98271.84;5043183;28;20243;-74
2021/07/19 05:54:40;;;;;;;4.10;2.63;;;;;;;26.63;64.87;98283.03;5042182;28;20204;-75
2021/07/19 05:57:08;;;;;;;6.47;2.90;;;;;;;26.55;64.26;98280.94;5046704;28;20300;-73
2021/07/19 05:59:35;;;;;;;5.43;2.77;;;;;;;25.93;67.14;98273.03;5041272;28;20302;-74
2021/07/19 06:02:04;;;;;;;4.77;2.57;;;;;;;27.53;59.79;98283.41;5036635;28;20241;-74
2021/07/19 06:04:32;;;;;;;5.10;2.50;;;;;;;27.00;62.32;98285.69;5026273;28;20589;-74
2021/07/19 06:06:59;;;;;;;4.03;2.50;;;;;;;27.73;59.91;98289.34;5040112;28;20222;-73
2021/07/19 06:09:26;;;;;;;4.47;2.70;;;;;;;26.79;63.33;98287.16;5039091;28;20212;-74
2021/07/19 06:11:53;;;;;;;3.33;2.73;;;;;;;26.68;62.88;98282.13;5033385;28;20309;-74
2021/07/19 06:14:20;;;;;;;9.37;2.93;;;;;;;26.82;63.12;98281.09;5037763;28;20207;-74
2021/07/19 06:16:50;;;;;;;4.17;2.70;;;;;;;27.79;59.54;98279.91;5045380;28;20205;-74
2021/07/19 06:19:19;;;;;;;4.43;3.00;;;;;;;27.87;58.56;98283.88;5043059;28;20210;-74
2021/07/19 06:21:46;;;;;;;3.97;2.67;;;;;;;27.62;60.90;98279.66;5045288;28;20231;-74
2021/07/19 06:24:13;;;;;;;4.17;2.80;;;;;;;27.96;58.55;98279.28;5039222;28;20691;-73
2021/07/19 06:26:41;;;;;;;3.37;2.57;;;;;;;28.38;56.99;98278.94;5033402;28;20590;-73
2021/07/19 06:29:08;;;;;;;4.77;3.03;;;;;;;27.48;61.23;98278.03;5032321;28;20208;-73
2021/07/19 06:31:35;;;;;;;3.53;2.87;;;;;;;29.25;53.25;98282.91;5039614;28;20773;-73
2021/07/19 06:34:02;;;;;;;3.13;2.40;;;;;;;27.72;59.49;98284.94;5045562;28;20696;-73
2021/07/19 06:36:31;;;;;;;4.30;2.70;;;;;;;27.50;60.83;98281.25;5045802;28;20674;-73
2021/07/19 06:38:59;;;;;;;3.60;2.47;;;;;;;28.02;59.08;98287.09;5046212;28;20213;-73
2021/07/19 06:41:26;;;;;;;4.30;2.80;;;;;;;28.90;55.30;98287.34;5035802;28;20235;-73
2021/07/19 06:43:53;;;;;;;6.10;2.90;;;;;;;27.92;58.34;98279.09;5039607;28;20207;-73
2021/07/19 06:46:20;;;;;;;4.73;3.00;;;;;;;28.98;54.82;98272.84;5048048;28;20211;-73
2021/07/19 06:48:48;;;;;;;5.13;3.17;;;;;;;29.17;54.58;98269.91;5043422;28;20204;-73
2021/07/19 06:51:15;;;;;;;4.43;2.40;;;;;;;28.61;56.56;98269.63;5046972;28;20247;-72
2021/07/19 06:53:43;;;;;;;4.47;2.87;;;;;;;29.03;56.12;98272.72;5044184;28;20204;-73
2021/07/19 06:56:11;;;;;;;3.40;2.60;;;;;;;28.74;56.57;98268.78;5033250;28;20220;-73
2021/07/19 06:58:38;;;;;;;4.60;2.80;;;;;;;29.74;53.05;98274.44;5043176;28;20211;-73
2021/07/19 07:01:05;;;;;;;3.90;2.70;;;;;;;28.83;56.54;98264.16;5048182;28;20725;-73
2021/07/19 07:03:33;;;;;;;7.10;2.90;;;;;;;28.29;56.76;98267.03;5041470;28;20811;-72
2021/07/19 07:06:00;;;;;;;4.53;2.90;;;;;;;29.10;53.73;98273.13;5038456;28;20284;-73
2021/07/19 07:08:28;;;;;;;3.33;2.63;;;;;;;30.21;51.27;98273.63;5035587;28;20233;-74
2021/07/19 07:10:58;;;;;;;5.67;2.50;;;;;;;28.45;56.52;98263.69;5032396;28;20777;-73
2021/07/19 07:13:25;;;;;;;5.10;2.73;;;;;;;29.39;54.32;98261.63;5038738;28;20244;-73
2021/07/19 07:15:52;;;;;;;11.60;3.00;;;;;;;29.34;53.12;98253.53;5043019;28;20234;-71
2021/07/19 07:18:20;;;;;;;3.67;2.80;;;;;;;29.94;52.04;98265.63;5031872;28;20198;-74
2021/07/19 07:20:47;;;;;;;5.35;2.97;;;;;;;28.18;57.65;98262.91;5039558;28;20235;-72
2021/07/19 07:23:14;;;;;;;6.87;3.10;;;;;;;29.25;55.30;98253.47;5043234;28;20210;-72
2021/07/19 07:25:42;;;;;;;6.97;3.20;;;;;;;30.37;50.47;98266.53;5045552;28;20576;-74
2021/07/19 07:28:10;;;;;;;5.23;3.00;;;;;;;29.26;53.48;98257.03;5044079;28;20232;-75
2021/07/19 07:30:37;;;;;;;6.50;3.40;;;;;;;28.22;57.52;98255.69;5036279;28;20216;-72
2021/07/19 07:33:05;;;;;;;4.97;3.00;;;;;;;29.22;53.93;98258.78;5032510;28;20282;-72
2021/07/19 07:35:32;;;;;;;8.67;3.27;;;;;;;28.55;56.56;98260.72;5030414;28;20213;-72
2021/07/19 07:38:00;;;;;;;7.60;3.13;;;;;;;29.79;52.95;98257.78;5034218;28;20231;-72
2021/07/19 07:40:28;;;;;;;5.93;3.50;;;;;;;29.77;51.18;98258.09;5043251;28;20202;-74
2021/07/19 07:42:56;;;;;;;7.72;3.42;;;;;;;29.89;51.88;98265.75;5044274;28;20233;-74
2021/07/19 07:45:24;;;;;;;4.25;2.92;;;;;;;29.14;52.98;98263.09;5042818;28;20692;-73
2021/07/19 07:47:52;;;;;;;4.28;2.97;;;;;;;29.37;52.94;98255.63;5032477;28;20226;-74
2021/07/19 07:50:19;;;;;;;4.53;3.50;;;;;;;30.75;49.02;98271.13;5037831;28;20203;-73
2021/07/19 07:52:46;;;;;;;4.47;2.67;;;;;;;30.89;49.46;98266.25;5045561;28;20600;-74
2021/07/19 07:55:14;;;;;;;8.40;3.63;;;;;;;28.93;53.80;98258.41;5045966;28;20677;-73
2021/07/19 07:57:41;;;;;;;8.50;3.35;;;;;;;28.76;56.51;98258.25;5037537;28;20202;-75
2021/07/19 08:00:13;;;;;;;6.78;3.75;;;;;;;29.70;52.09;98254.97;5033470;28;20206;-74
2021/07/19 08:02:42;;;;;;;4.75;3.15;;;;;;;30.20;50.79;98255.50;5032497;28;20226;-74
2021/07/19 08:05:10;;;;;;;9.75;3.55;;;;;;;29.96;50.00;98263.34;5036909;28;20221;-74
2021/07/19 08:07:38;;;;;;;5.28;3.80;;;;;;;30.19;50.77;98256.59;5045634;28;20718;-74
2021/07/19 08:10:07;;;;;;;3.95;3.13;;;;;;;30.90;47.37;98262.34;5038178;28;20209;-74
2021/07/19 08:12:35;;;;;;;5.30;3.25;;;;;;;29.36;55.42;98245.75;5040882;28;20702;-74
2021/07/19 08:15:03;;;;;;;4.78;3.05;;;;;;;30.35;51.29;98266.84;5035183;28;20210;-74
2021/07/19 08:17:31;;;;;;;5.70;2.65;;;;;;;29.71;53.98;98250.31;5033984;28;20213;-74
2021/07/19 08:20:00;;;;;;;6.70;3.58;;;;;;;30.25;52.78;98255.34;5047109;28;20217;-74
2021/07/19 08:22:30;;;;;;;5.95;3.20;;;;;;;30.72;49.52;98255.25;5044998;28;20309;-72
2021/07/19 08:24:58;;;;;;;5.22;3.03;;;;;;;29.06;56.09;98250.13;5038717;28;20195;-74
2021/07/19 08:27:25;;;;;;;6.00;2.80;;;;;;;30.76;51.04;98250.69;5043006;28;20244;-74
2021/07/19 08:29:53;;;;;;;7.20;3.53;;;;;;;30.43;50.89;98248.72;5033260;28;20205;-75
2021/07/19 08:32:20;;;;;;;6.68;3.30;;;;;;;30.47;50.13;98242.25;5032771;28;20236;-74
2021/07/19 08:34:48;;;;;;;4.05;3.10;;;;;;;30.81;48.63;98246.97;5035927;28;20206;-73
2021/07/19 08:37:17;;;;;;;4.43;3.08;;;;;;;30.40;49.37;98243.88;5042792;28;20686;-73
2021/07/19 08:39:47;;;;;;;3.47;2.90;;;;;;;30.17;51.95;98245.94;5045982;28;20213;-75
2021/07/19 08:42:14;;;;;;;5.43;3.10;;;;;;;31.83;47.28;98260.53;5043617;28;20236;-75
2021/07/19 08:44:42;;;;;;;7.75;3.20;;;;;;;31.43;47.55;98245.41;5035157;28;20214;-74
2021/07/19 08:47:10;;;;;;;5.68;2.65;;;;;;;32.31;45.64;98247.09;5035205;28;20249;-74
2021/07/19 08:49:38;;;;;;;6.55;3.42;;;;;;;31.04;47.85;98254.72;5031376;28;20198;-74
2021/07/19 08:52:06;;;;;;;3.70;3.05;;;;;;;30.49;49.38;98239.16;5034817;28;20253;-73
2021/07/19 08:54:36;;;;;;;5.15;3.28;;;;;;;31.56;46.85;98250.69;5030815;28;20217;-75
2021/07/19 08:57:05;;;;;;;6.50;3.30;;;;;;;32.03;44.37;98252.28;5026273;28;20738;-75
2021/07/19 08:59:32;;;;;;;5.00;2.90;;;;;;;31.33;46.70;98245.75;5027142;28;20211;-73
2021/07/19 09:02:01;;;;;;;26.60;5.35;;;;;;;32.43;43.20;98255.47;5020373;28;20262;-74
2021/07/19 09:04:29;;;;;;;5.25;3.20;;;;;;;32.40;43.54;98254.19;5041414;28;20203;-75
2021/07/19 09:06:57;;;;;;;4.00;3.10;;;;;;;32.21;43.94;98255.75;5042430;28;20220;-75
2021/07/19 09:09:30;;;;;;;4.55;3.45;;;;;;;30.98;47.21;98247.75;5043143;28;20214;-75
2021/07/19 09:12:00;;;;;;;4.53;3.20;;;;;;;31.09;47.10;98242.69;5038506;28;20222;-74
2021/07/19 09:14:28;;;;;;;6.13;3.03;;;;;;;30.00;49.11;98243.09;5025921;28;20203;-77
2021/07/19 09:16:55;;;;;;;6.07;3.83;;;;;;;30.16;50.01;98240.75;5033716;28;20203;-72
2021/07/19 09:19:24;;;;;;;4.90;2.78;;;;;;;30.76;47.71;98244.38;5044950;28;20292;-71
2021/07/19 09:21:55;;;;;;;4.18;2.92;;;;;;;32.15;43.46;98248.81;5045274;28;20648;-73
2021/07/19 09:24:24;;;;;;;6.35;3.35;;;;;;;31.46;45.16;98237.25;5042620;28;20207;-75
2021/07/19 09:26:53;;;;;;;5.40;3.30;;;;;;;30.63;45.76;98250.81;5040174;28;20198;-75
2021/07/19 09:29:23;;;;;;;5.57;3.75;;;;;;;29.92;49.79;98227.41;5030034;28;20217;-75
2021/07/19 09:31:53;;;;;;;5.90;3.30;;;;;;;30.70;46.72;98231.91;5030268;28;20275;-76
2021/07/19 09:34:22;;;;;;;7.00;3.33;;;;;;;31.18;46.30;98233.28;5044596;28;20202;-75
2021/07/19 09:36:57;;;;;;;3.65;3.08;;;;;;;31.19;45.18;98237.66;5031983;28;20221;-75
2021/07/19 09:39:24;;;;;;;6.72;3.10;;;;;;;31.44;44.37;98250.59;5043672;28;20225;-75
2021/07/19 09:41:52;;;;;;;4.30;3.10;;;;;;;32.35;42.41;98242.53;5035135;28;20226;-75
2021/07/19 09:44:24;;;;;;;4.30;2.92;;;;;;;31.98;43.46;98235.13;5029126;28;20213;-73
2021/07/19 09:47:00;;;;;;;7.20;3.53;;;;;;;31.92;42.92;98241.97;5044287;28;20644;-73
2021/07/19 09:49:29;;;;;;;4.47;3.53;;;;;;;31.07;44.82;98229.22;5035527;28;20202;-74
2021/07/19 09:52:00;;;;;;;4.75;3.38;;;;;;;31.49;43.45;98233.84;5031923;28;20226;-77
2021/07/19 09:54:37;;;;;;;4.93;2.95;;;;;;;32.87;41.91;98233.50;5029255;28;20810;-74
2021/07/19 09:57:06;;;;;;;5.95;2.83;;;;;;;32.44;42.30;98218.41;5039513;28;20206;-77
2021/07/19 09:59:37;;;;;;;3.90;3.08;;;;;;;32.67;41.42;98233.47;5039081;28;20288;-78
2021/07/19 10:02:04;;;;;;;5.35;3.45;;;;;;;32.49;40.33;98237.56;5045018;28;20607;-73
2021/07/19 10:04:32;;;;;;;4.78;3.42;;;;;;;32.06;43.38;98223.19;5036906;28;20207;-73
2021/07/19 10:07:00;;;;;;;5.10;3.28;;;;;;;33.50;40.21;98221.13;5030942;28;20222;-74
2021/07/19 10:09:28;;;;;;;8.60;3.80;;;;;;;32.32;42.00;98227.44;5033761;28;20231;-74
2021/07/19 10:11:57;;;;;;;6.10;3.28;;;;;;;33.22;40.34;98220.94;5037974;28;20230;-77
2021/07/19 10:14:27;;;;;;;3.97;2.90;;;;;;;33.14;39.20;98224.59;5037598;28;20209;-76
2021/07/19 10:16:58;;;;;;;6.53;3.10;;;;;;;33.03;39.45;98231.72;5037995;28;20214;-78
2021/07/19 10:19:25;;;;;;;2.80;2.50;;;;;;;32.35;39.11;98225.94;5048283;28;20615;-77
2021/07/19 10:21:53;;;;;;;6.28;2.65;;;;;;;32.01;40.52;98213.16;5035080;28;20233;-73
2021/07/19 10:24:21;;;;;;;5.95;3.17;;;;;;;33.23;37.86;98216.19;5033691;28;20548;-73
2021/07/19 10:26:49;;;;;;;3.90;2.58;;;;;;;33.53;37.78;98217.66;5044787;28;20202;-73
2021/07/19 10:29:18;;;;;;;3.83;3.33;;;;;;;33.28;37.55;98213.22;5044372;28;20598;-73
2021/07/19 10:31:46;;;;;;;5.78;3.53;;;;;;;33.12;39.37;98218.59;5039829;28;20254;-72
2021/07/19 10:34:15;;;;;;;4.95;2.97;;;;;;;33.87;37.60;98214.47;5046281;28;20220;-73
2021/07/19 10:36:50;;;;;;;4.15;2.78;;;;;;;32.83;36.54;98221.50;5040457;28;20209;-72
2021/07/19 10:39:25;;;;;;;3.67;2.50;;;;;;;33.68;35.13;98233.59;5033285;28;20248;-73
2021/07/19 10:42:03;;;;;;;2.63;2.42;;;;;;;34.55;33.99;98227.31;5034081;28;20222;-73
2021/07/19 10:44:35;;;;;;;4.28;2.55;;;;;;;33.28;34.36;98219.59;5045681;28;20204;-73
2021/07/19 10:47:13;;;;;;;4.18;2.30;;;;;;;33.93;33.35;98224.16;5037453;28;20674;-73
2021/07/19 10:49:43;;;;;;;5.93;2.47;;;;;;;33.92;34.30;98214.25;5039483;28;20889;-72
2021/07/19 10:52:12;;;;;;;4.18;2.35;;;;;;;33.11;35.70;98222.53;5049128;28;20228;-72
2021/07/19 10:54:50;;;;;;;4.07;2.58;;;;;;;33.23;35.58;98219.78;5033153;28;20205;-73
2021/07/19 10:57:18;;;;;;;3.65;2.70;;;;;;;32.44;36.56;98208.16;5038409;28;20209;-73
2021/07/19 10:59:46;;;;;;;5.55;2.67;;;;;;;32.89;34.55;98227.63;5046645;28;20209;-73
2021/07/19 11:02:28;;;;;;;2.67;2.10;;;;;;;32.39;36.34;98197.28;5047381;28;20246;-70
2021/07/19 11:04:57;;;;;;;5.88;2.30;;;;;;;33.54;34.00;98211.78;5038113;28;20212;-70
2021/07/19 11:07:26;;;;;;;3.53;2.35;;;;;;;34.55;33.20;98217.03;5044490;28;20213;-73
2021/07/19 11:09:54;;;;;;;3.20;2.10;;;;;;;33.72;32.29;98215.97;5034480;28;20671;-72
2021/07/19 11:12:21;;;;;;;4.47;2.30;;;;;;;34.57;32.59;98205.59;5032771;28;20236;-72
2021/07/19 11:14:50;;;;;;;6.32;2.50;;;;;;;33.75;33.35;98206.16;5044463;28;20205;-72
2021/07/19 11:17:19;;;;;;;4.05;2.40;;;;;;;33.30;33.72;98203.44;5044912;28;20276;-72
2021/07/19 11:19:48;;;;;;;3.10;2.20;;;;;;;34.91;31.25;98207.00;5040694;28;20209;-76
2021/07/19 11:22:23;;;;;;;4.35;2.15;;;;;;;33.35;35.52;98196.91;5041691;28;20235;-72
2021/07/19 11:24:53;;;;;;;3.92;2.42;;;;;;;32.76;35.08;98196.34;5033534;28;20568;-75
2021/07/19 11:27:32;;;;;;;5.47;2.53;;;;;;;32.71;35.01;98201.25;5034642;28;20688;-81
2021/07/19 11:30:01;;;;;;;4.15;2.15;;;;;;;32.45;35.34;98200.69;5050722;28;20203;-74
2021/07/19 11:32:30;;;;;;;3.97;2.13;;;;;;;32.92;34.35;98199.28;5046032;28;20720;-74
2021/07/19 11:35:08;;;;;;;4.28;2.17;;;;;;;32.00;35.29;98199.69;5043668;28;20793;-74
2021/07/19 11:37:38;;;;;;;4.95;2.20;;;;;;;32.60;34.76;98192.59;5035406;28;20206;-73
2021/07/19 11:40:07;;;;;;;4.63;2.28;;;;;;;33.65;32.78;98198.31;5033240;28;20209;-76
2021/07/19 11:42:40;;;;;;;2.47;2.08;;;;;;;32.88;33.38;98196.41;5044224;28;20593;-74